Time;durP1;ratioP1;P1;durP2;ratioP2;P2;SDS_P1;SDS_P2;PMS_P1;PMS_P2;Temp;Humidity;BMP_temperature;BMP_pressure;BME280_temperature;BME280_humidity;BME280_pressure;Samples;Min_cycle;Max_cycle;Signal;HPM_P1;HPM_P2
2022/01/12 00:00:32;;;;;;;130.38;51.47;;;-1.00;93.70;;;;;;4833887;29;20053;-80
2022/01/12 00:03:00;;;;;;;136.38;53.25;;;-0.90;93.70;;;;;;4832961;29;20042;-80
2022/01/12 00:05:28;;;;;;;114.55;47.80;;;-0.90;93.70;;;;;;4855942;29;20053;-80
2022/01/12 00:07:56;;;;;;;106.45;46.55;;;-0.90;93.70;;;;;;4841358;29;20046;-80
2022/01/12 00:10:25;;;;;;;104.90;42.22;;;-0.90;93.60;;;;;;4837673;29;20065;-79
2022/01/12 00:12:52;;;;;;;104.70;46.58;;;-1.00;93.40;;;;;;4830357;29;20051;-79
2022/01/12 00:15:20;;;;;;;99.22;42.17;;;-1.10;93.40;;;;;;4828931;29;20053;-79
2022/01/12 00:17:48;;;;;;;111.25;47.30;;;-1.10;93.30;;;;;;4813372;29;20050;-79
2022/01/12 00:20:15;;;;;;;135.00;57.22;;;-1.10;93.30;;;;;;4831035;29;20517;-79
2022/01/12 00:22:44;;;;;;;142.55;59.88;;;-1.20;93.40;;;;;;4834848;29;20068;-79
2022/01/12 00:33:23;;;;;;;127.53;52.38;;;-1.20;93.60;;;;;;4826299;29;20062;-79
2022/01/12 00:35:53;;;;;;;134.30;56.20;;;-1.20;93.60;;;;;;4826478;29;20058;-79
2022/01/12 00:38:25;;;;;;;139.00;55.28;;;-1.20;93.60;;;;;;4832410;29;20046;-79
2022/01/12 00:40:54;;;;;;;122.75;52.60;;;-1.20;93.60;;;;;;4808089;29;20437;-79
2022/01/12 00:43:26;;;;;;;150.50;62.10;;;-1.20;93.60;;;;;;4826177;29;20061;-79
2022/01/12 00:45:55;;;;;;;140.30;55.80;;;-1.20;93.70;;;;;;4808199;29;20046;-79
2022/01/12 00:48:23;;;;;;;144.38;59.60;;;-1.20;93.90;;;;;;4831287;29;20070;-79
2022/01/12 00:50:51;;;;;;;173.27;67.25;;;-1.10;94.00;;;;;;4834318;29;20061;-79
2022/01/12 00:53:19;;;;;;;156.10;61.55;;;-1.10;94.10;;;;;;4838943;29;20069;-79
2022/01/12 00:55:46;;;;;;;137.07;55.97;;;-1.10;94.10;;;;;;4823446;29;20525;-79
2022/01/12 00:58:14;;;;;;;136.63;55.67;;;-1.10;94.10;;;;;;4815738;29;20061;-79
2022/01/12 01:00:42;;;;;;;139.13;58.88;;;-1.10;94.10;;;;;;4818392;29;20098;-79
2022/01/12 01:03:10;;;;;;;146.60;58.85;;;-1.10;94.00;;;;;;4825157;29;20058;-79
2022/01/12 01:05:39;;;;;;;134.88;58.05;;;-1.10;94.00;;;;;;4810473;29;20055;-79
2022/01/12 01:08:07;;;;;;;135.63;58.30;;;-1.10;94.00;;;;;;4816713;29;20069;-79
2022/01/12 01:13:10;;;;;;;123.57;53.28;;;-1.10;94.00;;;;;;4836730;29;20062;-77
2022/01/12 01:26:45;;;;;;;159.82;64.82;;;-1.20;94.20;;;;;;4822801;29;20053;-79
2022/01/12 01:29:13;;;;;;;129.10;54.53;;;-1.20;94.10;;;;;;4810021;29;20057;-79
2022/01/12 01:31:43;;;;;;;133.07;52.80;;;-1.20;94.00;;;;;;4836113;29;20062;-79
2022/01/12 01:34:14;;;;;;;122.82;54.28;;;-1.30;94.00;;;;;;4811821;29;20074;-79
2022/01/12 01:36:47;;;;;;;134.68;55.70;;;-1.20;94.20;;;;;;4840161;29;20164;-80
2022/01/12 01:39:23;;;;;;;129.35;55.80;;;-1.30;94.10;;;;;;4823976;29;20383;-79
2022/01/12 01:42:05;;;;;;;122.93;52.72;;;-1.30;94.00;;;;;;4835342;29;20047;-79
2022/01/12 01:55:32;;;;;;;102.10;43.65;;;-1.20;94.10;;;;;;4835469;29;20045;-79
2022/01/12 01:57:59;;;;;;;114.00;46.80;;;-1.30;94.00;;;;;;4817704;29;20380;-79
2022/01/12 02:00:29;;;;;;;115.10;45.60;;;-1.30;93.80;;;;;;4807831;29;20046;-79
2022/01/12 02:03:03;;;;;;;104.15;45.80;;;-1.40;93.70;;;;;;4835689;29;20054;-79
2022/01/12 02:05:39;;;;;;;117.43;48.33;;;-1.40;93.80;;;;;;4834483;29;20054;-79
2022/01/12 02:08:08;;;;;;;125.63;52.38;;;-1.40;93.80;;;;;;4829497;29;20059;-79
2022/01/12 02:10:44;;;;;;;130.15;55.00;;;-1.40;93.90;;;;;;4827233;29;20057;-79
2022/01/12 02:13:11;;;;;;;140.32;56.95;;;-1.40;94.10;;;;;;4827287;29;20070;-78
2022/01/12 02:15:44;;;;;;;141.32;59.17;;;-1.40;94.10;;;;;;4848865;29;20051;-79
2022/01/12 02:18:34;;;;;;;123.15;55.17;;;-1.40;94.20;;;;;;4826192;29;20057;-79
2022/01/12 02:35:36;;;;;;;140.20;60.05;;;-1.30;94.20;;;;;;4838848;29;20533;-79
2022/01/12 02:40:53;;;;;;;145.07;58.83;;;-1.30;94.10;;;;;;4826887;29;20050;-79
2022/01/12 02:50:34;;;;;;;131.48;60.97;;;-1.30;94.00;;;;;;4840897;29;20057;-79
2022/01/12 02:54:51;;;;;;;111.40;53.72;;;-1.50;93.90;;;;;;4805339;29;20069;-79
2022/01/12 02:57:21;;;;;;;116.07;53.75;;;-1.50;93.90;;;;;;4838276;29;20054;-79
2022/01/12 03:00:11;;;;;;;101.90;45.83;;;-1.50;93.90;;;;;;4830325;29;20050;-79
2022/01/12 03:02:41;;;;;;;118.18;53.00;;;-1.60;94.00;;;;;;4826459;29;20051;-79
2022/01/12 03:07:46;;;;;;;149.02;68.32;;;-1.50;94.20;;;;;;4829755;29;20066;-80
2022/01/12 03:10:14;;;;;;;174.23;72.22;;;-1.40;94.30;;;;;;4834468;29;20050;-79
2022/01/12 03:12:45;;;;;;;169.40;73.75;;;-1.50;94.30;;;;;;4836527;29;20054;-79
2022/01/12 03:15:16;;;;;;;157.40;64.15;;;-1.40;94.30;;;;;;4849072;29;20050;-79
2022/01/12 03:17:44;;;;;;;134.07;60.80;;;-1.40;94.20;;;;;;4836934;29;20077;-79
2022/01/12 03:20:13;;;;;;;127.38;58.13;;;-1.50;94.10;;;;;;4830952;29;20145;-79
2022/01/12 03:22:40;;;;;;;141.35;59.00;;;-1.50;94.00;;;;;;4831043;29;20058;-79
2022/01/12 03:25:08;;;;;;;149.68;62.00;;;-1.60;93.90;;;;;;4842997;29;20050;-79
2022/01/12 03:27:38;;;;;;;140.18;61.05;;;-1.60;94.10;;;;;;4831586;29;20411;-79
2022/01/12 03:30:06;;;;;;;131.52;56.33;;;-1.50;94.20;;;;;;4846977;29;20051;-79
2022/01/12 03:32:43;;;;;;;118.63;55.40;;;-1.50;94.30;;;;;;4850724;29;20042;-79
2022/01/12 03:35:24;;;;;;;116.68;49.92;;;-1.50;94.20;;;;;;4840180;29;20050;-79
2022/01/12 03:38:20;;;;;;;108.35;47.63;;;-1.60;94.00;;;;;;4834938;29;20054;-79
2022/01/12 03:40:44;;;;;;;114.10;47.53;;;-1.60;93.90;;;;;;4840240;29;20407;-79
2022/01/12 03:43:12;;;;;;;114.55;47.78;;;-1.70;93.90;;;;;;4853491;29;20046;-80
2022/01/12 03:45:41;;;;;;;111.28;50.20;;;-1.60;94.00;;;;;;4838634;29;20098;-80
2022/01/12 03:48:08;;;;;;;118.20;50.75;;;-1.60;94.10;;;;;;4824515;29;20050;-77
2022/01/12 03:50:36;;;;;;;108.90;47.92;;;-1.70;94.00;;;;;;4847854;29;20057;-78
2022/01/12 03:53:04;;;;;;;111.85;45.90;;;-1.70;93.90;;;;;;4845309;29;20058;-78
2022/01/12 03:55:32;;;;;;;92.72;41.03;;;-1.70;93.80;;;;;;4831489;29;20502;-77
2022/01/12 03:58:00;;;;;;;99.45;44.45;;;-1.80;93.80;;;;;;4841451;29;20398;-78
2022/01/12 04:00:27;;;;;;;103.95;45.67;;;-1.80;93.80;;;;;;4830162;29;20491;-78
2022/01/12 04:02:55;;;;;;;110.07;46.38;;;-1.90;93.80;;;;;;4828714;29;20498;-78
2022/01/12 04:08:21;;;;;;;110.15;48.45;;;-1.90;93.90;;;;;;4831704;29;20057;-78
2022/01/12 04:10:57;;;;;;;124.75;52.90;;;-1.90;94.00;;;;;;4843386;29;20206;-78
2022/01/12 04:13:27;;;;;;;100.95;46.65;;;-2.00;94.00;;;;;;4846047;29;20054;-78
2022/01/12 04:15:59;;;;;;;107.47;46.65;;;-1.90;94.00;;;;;;4834842;29;20418;-78
2022/01/12 04:18:28;;;;;;;93.47;43.75;;;-2.00;93.90;;;;;;4833516;29;20046;-78
2022/01/12 04:20:57;;;;;;;101.07;44.90;;;-2.00;93.90;;;;;;4838719;29;20045;-78
2022/01/12 04:23:25;;;;;;;113.75;46.83;;;-2.00;93.90;;;;;;4844880;29;20057;-78
2022/01/12 04:25:56;;;;;;;107.05;46.53;;;-2.00;93.90;;;;;;4826286;29;20046;-78
2022/01/12 04:28:26;;;;;;;99.88;45.97;;;-2.00;94.10;;;;;;4842014;29;20049;-78
2022/01/12 04:30:56;;;;;;;103.03;49.60;;;-2.00;94.30;;;;;;4840510;29;20549;-78
2022/01/12 04:33:25;;;;;;;113.38;47.92;;;-1.90;94.30;;;;;;4832711;29;20058;-78
2022/01/12 04:35:55;;;;;;;102.63;46.33;;;-1.90;94.30;;;;;;4824332;29;20050;-78
2022/01/12 04:38:25;;;;;;;109.32;48.92;;;-1.90;94.20;;;;;;4815878;29;20050;-78
2022/01/12 04:40:54;;;;;;;121.10;51.35;;;-1.90;94.20;;;;;;4849603;29;20054;-78
2022/01/12 04:43:24;;;;;;;119.47;51.90;;;-1.90;94.30;;;;;;4827569;29;20050;-77
2022/01/12 04:50:52;;;;;;;107.53;47.50;;;-1.90;94.20;;;;;;4828539;29;20059;-77
2022/01/12 04:53:21;;;;;;;103.95;47.03;;;-1.80;94.30;;;;;;4825990;29;20047;-78
2022/01/12 04:55:51;;;;;;;107.25;46.25;;;-1.80;94.40;;;;;;4835125;29;20069;-78
2022/01/12 04:58:19;;;;;;;99.30;42.38;;;-1.80;94.40;;;;;;4851594;29;20065;-80
2022/01/12 05:00:50;;;;;;;90.00;38.78;;;-1.80;94.30;;;;;;4827091;29;20495;-78
2022/01/12 05:09:05;;;;;;;88.15;38.80;;;-1.90;94.20;;;;;;4840788;29;20042;-77
2022/01/12 05:14:25;;;;;;;100.57;42.08;;;-1.90;94.30;;;;;;4824656;29;20403;-77
2022/01/12 05:16:54;;;;;;;95.82;40.30;;;-1.90;94.30;;;;;;4842991;29;20046;-78
2022/01/12 05:19:22;;;;;;;95.28;42.40;;;-1.90;94.30;;;;;;4851358;29;20053;-77
2022/01/12 05:21:50;;;;;;;94.93;41.53;;;-1.90;94.40;;;;;;4839360;29;20061;-77
2022/01/12 05:24:18;;;;;;;99.60;43.15;;;-1.90;94.40;;;;;;4855259;29;20065;-78
2022/01/12 05:26:45;;;;;;;98.03;42.92;;;-1.90;94.50;;;;;;4832708;29;20553;-78
2022/01/12 05:29:13;;;;;;;101.05;41.92;;;-1.90;94.50;;;;;;4847438;29;20063;-78
2022/01/12 05:31:42;;;;;;;111.88;46.00;;;-1.80;94.60;;;;;;4830540;29;20688;-78
2022/01/12 05:34:11;;;;;;;109.85;47.22;;;-1.80;94.70;;;;;;4832168;29;20053;-77
2022/01/12 05:36:39;;;;;;;83.88;40.88;;;-1.70;94.70;;;;;;4835654;29;20053;-78
2022/01/12 05:39:07;;;;;;;87.90;40.55;;;-1.70;94.70;;;;;;4827645;29;20042;-77
2022/01/12 05:41:35;;;;;;;95.40;40.78;;;-1.70;94.60;;;;;;4849647;29;20046;-78
2022/01/12 05:44:06;;;;;;;97.65;44.22;;;-1.70;94.60;;;;;;4853368;29;20053;-78
2022/01/12 05:46:37;;;;;;;109.53;44.65;;;-1.70;94.60;;;;;;4833190;29;20065;-77
2022/01/12 05:51:59;;;;;;;89.80;42.53;;;-1.70;94.70;;;;;;4836739;29;20069;-77
2022/01/12 05:54:26;;;;;;;93.38;43.20;;;-1.70;94.80;;;;;;4820181;29;20058;-78
2022/01/12 05:56:56;;;;;;;101.93;44.13;;;-1.60;94.80;;;;;;4809414;29;20069;-78
2022/01/12 05:59:24;;;;;;;90.65;42.30;;;-1.60;94.70;;;;;;4834817;29;20065;-78
2022/01/12 06:01:52;;;;;;;100.32;42.50;;;-1.60;94.60;;;;;;4806631;29;20053;-78
2022/01/12 06:04:20;;;;;;;87.93;40.83;;;-1.70;94.70;;;;;;4844597;29;20058;-78
2022/01/12 06:06:49;;;;;;;102.50;42.25;;;-1.60;94.70;;;;;;4824645;29;20046;-77
2022/01/12 06:09:17;;;;;;;92.65;42.55;;;-1.60;94.70;;;;;;4816344;29;20050;-78
2022/01/12 06:11:45;;;;;;;102.63;43.72;;;-1.60;94.80;;;;;;4857721;29;20065;-78
2022/01/12 06:14:18;;;;;;;80.97;40.38;;;-1.60;94.80;;;;;;4841768;29;20554;-77
2022/01/12 06:16:45;;;;;;;95.30;40.20;;;-1.60;94.80;;;;;;4852525;29;20068;-79
2022/01/12 06:19:15;;;;;;;84.82;39.33;;;-1.60;94.70;;;;;;4841640;29;20054;-77
2022/01/12 06:21:56;;;;;;;80.28;36.72;;;-1.60;94.70;;;;;;4840075;29;20054;-78
2022/01/12 06:24:31;;;;;;;80.25;34.78;;;-1.60;94.60;;;;;;4856975;29;20045;-76
2022/01/12 06:27:00;;;;;;;83.18;35.53;;;-1.60;94.60;;;;;;4849753;29;20061;-77
2022/01/12 06:29:40;;;;;;;90.88;37.63;;;-1.60;94.60;;;;;;4844860;29;20053;-77
2022/01/12 06:32:10;;;;;;;82.95;39.83;;;-1.60;94.60;;;;;;4850005;29;20049;-77
2022/01/12 06:34:38;;;;;;;91.45;39.92;;;-1.60;94.70;;;;;;4833026;29;20380;-78
2022/01/12 06:37:05;;;;;;;92.65;41.33;;;-1.60;94.70;;;;;;4840255;29;20072;-77
2022/01/12 06:39:33;;;;;;;91.38;39.83;;;-1.50;94.80;;;;;;4832352;29;20049;-78
2022/01/12 06:42:01;;;;;;;98.35;41.47;;;-1.60;94.80;;;;;;4833178;29;20050;-78
2022/01/12 06:44:30;;;;;;;88.88;40.05;;;-1.50;94.90;;;;;;4831231;29;20065;-78
2022/01/12 06:47:02;;;;;;;81.13;37.30;;;-1.50;94.90;;;;;;4854280;29;20053;-78
2022/01/12 06:49:31;;;;;;;80.63;36.65;;;-1.50;94.90;;;;;;4828235;29;20487;-78
2022/01/12 06:52:00;;;;;;;85.50;37.85;;;-1.50;94.80;;;;;;4845812;29;20066;-78
2022/01/12 06:54:28;;;;;;;81.07;35.47;;;-1.50;94.80;;;;;;4835055;29;20061;-77
2022/01/12 06:56:56;;;;;;;89.75;38.55;;;-1.60;94.80;;;;;;4828692;29;20054;-78
2022/01/12 06:59:24;;;;;;;100.80;42.25;;;-1.50;94.80;;;;;;4839619;29;20061;-81
2022/01/12 07:01:55;;;;;;;97.88;41.47;;;-1.50;94.90;;;;;;4834299;29;20647;-78
2022/01/12 07:04:30;;;;;;;97.90;38.45;;;-1.50;94.90;;;;;;4845626;29;20402;-77
2022/01/12 07:06:58;;;;;;;95.45;39.15;;;-1.50;94.90;;;;;;4835431;29;20050;-77
2022/01/12 07:09:26;;;;;;;100.72;40.15;;;-1.50;94.90;;;;;;4837694;29;20050;-77
2022/01/12 07:12:04;;;;;;;95.32;38.33;;;-1.50;94.90;;;;;;4851736;29;20414;-80
2022/01/12 07:14:35;;;;;;;83.60;37.58;;;-1.50;94.90;;;;;;4840475;29;20058;-77
2022/01/12 07:17:03;;;;;;;75.88;34.75;;;-1.50;94.80;;;;;;4851073;29;20514;-77
2022/01/12 07:19:31;;;;;;;90.30;37.35;;;-1.40;94.80;;;;;;4842631;29;20046;-77
2022/01/12 07:21:59;;;;;;;96.30;38.85;;;-1.40;94.80;;;;;;4832941;29;20054;-77
2022/01/12 07:24:27;;;;;;;91.18;40.78;;;-1.40;94.80;;;;;;4832170;29;20069;-77
2022/01/12 07:26:55;;;;;;;97.72;39.90;;;-1.50;94.80;;;;;;4836460;29;20062;-77
2022/01/12 07:29:22;;;;;;;91.05;41.20;;;-1.40;94.80;;;;;;4829741;29;20411;-78
2022/01/12 07:31:50;;;;;;;92.63;40.97;;;-1.50;94.80;;;;;;4835157;29;20061;-78
2022/01/12 07:34:18;;;;;;;89.13;39.58;;;-1.50;94.70;;;;;;4829619;29;20050;-77
2022/01/12 07:36:46;;;;;;;89.07;38.83;;;-1.50;94.70;;;;;;4832913;29;20066;-78
2022/01/12 07:39:13;;;;;;;84.85;39.55;;;-1.50;94.70;;;;;;4839842;29;20049;-78
2022/01/12 07:41:41;;;;;;;88.22;39.35;;;-1.50;94.70;;;;;;4843278;29;20062;-78
2022/01/12 07:44:09;;;;;;;96.95;41.25;;;-1.50;94.70;;;;;;4831764;29;20054;-78
2022/01/12 07:46:37;;;;;;;92.55;41.40;;;-1.60;94.70;;;;;;4829583;29;20074;-77
2022/01/12 07:49:05;;;;;;;90.22;38.10;;;-1.50;94.80;;;;;;4835915;29;20050;-78
2022/01/12 07:51:32;;;;;;;82.50;37.35;;;-1.50;94.70;;;;;;4842190;29;20406;-77
2022/01/12 07:54:00;;;;;;;81.03;36.65;;;-1.50;94.60;;;;;;4836217;29;20053;-78
2022/01/12 07:56:28;;;;;;;83.05;38.60;;;-1.60;94.50;;;;;;4850797;29;20061;-77
2022/01/12 07:58:56;;;;;;;93.90;40.58;;;-1.60;94.50;;;;;;4829124;29;20391;-78
2022/01/12 08:01:24;;;;;;;124.35;44.95;;;-1.60;94.50;;;;;;4832073;29;20061;-78
2022/01/12 08:03:52;;;;;;;119.65;45.00;;;-1.60;94.50;;;;;;4836031;29;20050;-78
2022/01/12 08:06:20;;;;;;;108.20;42.58;;;-1.60;94.60;;;;;;4828527;29;20050;-77
2022/01/12 08:08:48;;;;;;;93.28;42.88;;;-1.60;94.60;;;;;;4832484;29;20050;-78
2022/01/12 08:11:16;;;;;;;104.03;41.35;;;-1.60;94.60;;;;;;4831757;29;20042;-78
2022/01/12 08:13:45;;;;;;;106.45;43.55;;;-1.60;94.70;;;;;;4835669;29;20058;-78
2022/01/12 08:16:13;;;;;;;105.65;43.92;;;-1.60;94.70;;;;;;4833001;29;20046;-77
2022/01/12 08:18:41;;;;;;;92.35;41.22;;;-1.60;94.70;;;;;;4825349;29;20061;-78
2022/01/12 08:21:09;;;;;;;76.85;37.42;;;-1.60;94.70;;;;;;4830871;29;20050;-78
2022/01/12 08:23:37;;;;;;;90.90;38.22;;;-1.60;94.70;;;;;;4814506;29;20665;-78
2022/01/12 08:26:07;;;;;;;85.80;38.35;;;-1.60;94.70;;;;;;4821842;29;20391;-78
2022/01/12 08:28:34;;;;;;;85.03;38.08;;;-1.60;94.80;;;;;;4823241;29;20038;-78
2022/01/12 08:31:02;;;;;;;81.00;35.80;;;-1.60;94.80;;;;;;4826578;29;20043;-77
2022/01/12 08:33:30;;;;;;;90.72;37.05;;;-1.60;94.80;;;;;;4826798;29;20097;-77
2022/01/12 08:35:57;;;;;;;86.90;37.00;;;-1.60;94.80;;;;;;4821172;29;20050;-78
2022/01/12 08:38:25;;;;;;;90.55;39.80;;;-1.60;94.80;;;;;;4831896;29;20229;-79
2022/01/12 08:40:53;;;;;;;96.22;42.55;;;-1.50;94.90;;;;;;4825350;29;20053;-78
2022/01/12 08:43:21;;;;;;;108.60;44.92;;;-1.40;95.00;;;;;;4825949;29;20054;-79
2022/01/12 08:45:51;;;;;;;104.80;42.03;;;-1.40;95.10;;;;;;4840257;29;20062;-79
2022/01/12 08:48:18;;;;;;;99.85;40.08;;;-1.30;95.10;;;;;;4832481;29;20058;-79
2022/01/12 08:50:46;;;;;;;124.32;47.13;;;-1.20;95.20;;;;;;4836826;29;20545;-77
2022/01/12 08:53:14;;;;;;;116.65;43.67;;;-1.20;95.20;;;;;;4826886;29;20054;-77
2022/01/12 08:55:42;;;;;;;104.57;42.60;;;-1.10;95.30;;;;;;4837271;29;20062;-77
2022/01/12 08:58:10;;;;;;;101.53;41.83;;;-1.10;95.30;;;;;;4815700;29;20053;-77
2022/01/12 09:00:38;;;;;;;106.25;42.38;;;-1.10;95.30;;;;;;4829059;29;20054;-77
2022/01/12 09:03:05;;;;;;;107.28;42.67;;;-1.00;95.30;;;;;;4838675;29;20049;-78
2022/01/12 09:05:34;;;;;;;111.30;43.95;;;-1.00;95.30;;;;;;4826878;29;20517;-77
2022/01/12 09:08:01;;;;;;;107.30;43.90;;;-1.00;95.20;;;;;;4834078;29;20066;-77
2022/01/12 09:10:29;;;;;;;103.95;42.10;;;-0.90;95.20;;;;;;4834466;29;20041;-77
2022/01/12 09:12:57;;;;;;;97.13;42.63;;;-0.90;95.20;;;;;;4827560;29;20533;-76
2022/01/12 09:15:25;;;;;;;119.35;45.45;;;-0.90;95.20;;;;;;4826319;29;20054;-76
2022/01/12 09:17:55;;;;;;;89.15;40.40;;;-0.80;95.20;;;;;;4835559;29;20051;-77
2022/01/12 09:20:23;;;;;;;94.75;40.22;;;-0.70;95.30;;;;;;4832577;29;20053;-77
2022/01/12 09:22:52;;;;;;;99.88;42.00;;;-0.70;95.40;;;;;;4828301;29;20057;-76
2022/01/12 09:25:20;;;;;;;86.55;38.38;;;-0.60;95.30;;;;;;4838802;29;20061;-77
2022/01/12 09:27:48;;;;;;;83.78;40.20;;;-0.60;95.30;;;;;;4827943;29;20057;-77
2022/01/12 09:30:18;;;;;;;89.68;40.92;;;-0.60;95.30;;;;;;4832554;29;20042;-77
2022/01/12 09:32:46;;;;;;;106.18;45.20;;;-0.60;95.20;;;;;;4835850;29;20061;-77
2022/01/12 09:35:18;;;;;;;679.55;81.20;;;-0.60;95.20;;;;;;4825327;29;20069;-77
2022/01/12 09:37:46;;;;;;;115.72;50.05;;;-0.50;95.20;;;;;;4835552;29;20050;-77
2022/01/12 09:40:14;;;;;;;118.15;50.95;;;-0.50;95.30;;;;;;4815587;29;20053;-77
2022/01/12 09:42:47;;;;;;;110.00;49.05;;;-0.40;95.30;;;;;;4827719;29;20074;-77
2022/01/12 09:45:18;;;;;;;133.38;55.53;;;-0.40;95.30;;;;;;4837427;29;20058;-77
2022/01/12 09:47:47;;;;;;;139.15;58.25;;;-0.40;95.30;;;;;;4822694;29;20058;-77
2022/01/12 09:50:18;;;;;;;127.20;56.63;;;-0.30;95.40;;;;;;4834504;29;20050;-78
2022/01/12 09:52:45;;;;;;;132.60;59.00;;;-0.20;95.40;;;;;;4831960;29;20057;-77
2022/01/12 09:55:13;;;;;;;126.45;58.92;;;-0.10;95.50;;;;;;4838424;29;20049;-77
2022/01/12 09:57:41;;;;;;;117.15;51.17;;;-0.10;95.50;;;;;;4827655;29;20383;-77
2022/01/12 10:00:10;;;;;;;95.85;43.90;;;0.00;95.50;;;;;;4832802;29;20418;-77
2022/01/12 10:02:42;;;;;;;108.80;44.63;;;0.00;95.60;;;;;;4819531;29;20046;-77
2022/01/12 10:05:10;;;;;;;97.43;43.47;;;0.00;95.60;;;;;;4826482;29;20046;-77
2022/01/12 10:07:38;;;;;;;89.90;42.13;;;0.10;95.60;;;;;;4836722;29;20050;-77
2022/01/12 10:10:14;;;;;;;116.15;50.75;;;0.20;95.60;;;;;;4830481;29;20062;-77
2022/01/12 10:12:53;;;;;;;96.78;47.50;;;0.20;95.60;;;;;;4827672;29;20063;-77
2022/01/12 10:15:21;;;;;;;93.22;45.72;;;0.30;95.60;;;;;;4825153;29;20495;-77
2022/01/12 10:17:49;;;;;;;90.18;43.67;;;0.30;95.60;;;;;;4840845;29;20053;-77
2022/01/12 10:20:22;;;;;;;100.45;45.53;;;0.40;95.50;;;;;;4839526;29;20053;-77
2022/01/12 10:23:06;;;;;;;83.25;42.53;;;0.40;95.50;;;;;;4827513;29;20054;-78
2022/01/12 10:25:36;;;;;;;106.82;47.42;;;0.40;95.40;;;;;;4810362;29;20518;-77
2022/01/12 10:28:13;;;;;;;95.63;47.85;;;0.50;95.40;;;;;;4824453;29;20058;-79
2022/01/12 10:31:06;;;;;;;113.07;51.33;;;0.60;95.30;;;;;;4828780;29;20050;-79
2022/01/12 10:33:34;;;;;;;95.32;48.53;;;0.70;95.30;;;;;;4826401;29;20513;-79
2022/01/12 10:36:06;;;;;;;95.20;49.70;;;0.80;95.20;;;;;;4840150;29;20114;-79
2022/01/12 10:38:34;;;;;;;104.10;49.33;;;0.90;95.30;;;;;;4823829;29;20054;-80
2022/01/12 10:41:06;;;;;;;85.32;43.10;;;1.00;95.40;;;;;;4824983;29;20511;-80
2022/01/12 10:43:44;;;;;;;83.93;42.83;;;1.20;95.60;;;;;;4824952;29;20064;-81
2022/01/12 10:46:15;;;;;;;91.18;44.22;;;1.30;95.70;;;;;;4816340;29;20324;-81
2022/01/12 10:48:47;;;;;;;79.60;38.78;;;1.50;95.70;;;;;;4834881;29;20410;-81
2022/01/12 10:51:20;;;;;;;74.43;37.17;;;1.60;95.80;;;;;;4809391;29;20054;-80
2022/01/12 10:53:48;;;;;;;;;;;1.80;95.80;;;;;;4819168;29;20067;-80
2022/01/12 10:56:18;;;;;;;59.22;32.25;;;1.90;95.80;;;;;;4833810;29;19924;-80
2022/01/12 10:58:49;;;;;;;69.00;31.45;;;2.00;95.80;;;;;;4830554;29;20054;-80
2022/01/12 11:01:21;;;;;;;58.40;31.58;;;2.20;95.90;;;;;;4841122;29;20042;-79
2022/01/12 11:03:49;;;;;;;60.28;32.40;;;2.30;95.80;;;;;;4815342;29;20058;-80
2022/01/12 11:06:18;;;;;;;55.10;27.98;;;2.40;95.80;;;;;;4834424;29;20507;-79
2022/01/12 11:08:49;;;;;;;51.95;26.33;;;2.60;95.80;;;;;;4825566;29;20043;-79
2022/01/12 11:11:19;;;;;;;37.80;21.70;;;2.70;95.80;;;;;;4839770;29;20525;-79
2022/01/12 11:13:50;;;;;;;39.28;20.90;;;2.80;95.80;;;;;;4830873;29;20303;-79
2022/01/12 11:16:24;;;;;;;38.92;19.08;;;3.00;95.80;;;;;;4818188;29;20046;-79
2022/01/12 11:18:54;;;;;;;37.22;19.33;;;3.20;95.80;;;;;;4839169;29;20057;-79
2022/01/12 11:21:36;;;;;;;38.28;19.02;;;3.30;95.80;;;;;;4828585;29;20054;-80
2022/01/12 11:24:05;;;;;;;38.45;17.27;;;3.50;95.90;;;;;;4835962;29;20053;-79
2022/01/12 11:26:33;;;;;;;27.95;15.98;;;3.70;95.90;;;;;;4836468;29;20046;-80
2022/01/12 11:29:03;;;;;;;33.08;15.38;;;3.80;95.90;;;;;;4829016;29;20042;-80
2022/01/12 11:31:35;;;;;;;29.92;11.82;;;3.90;95.80;;;;;;4824501;29;20065;-80
2022/01/12 11:34:02;;;;;;;25.27;5.60;;;4.10;95.90;;;;;;4832643;29;20069;-80
2022/01/12 11:36:40;;;;;;;19.00;4.00;;;4.30;95.90;;;;;;4819755;29;20064;-80
2022/01/12 11:39:09;;;;;;;19.80;4.13;;;4.50;95.90;;;;;;4828040;29;20054;-80
2022/01/12 11:41:39;;;;;;;20.17;3.85;;;4.70;95.90;;;;;;4839958;29;20051;-80
2022/01/12 11:44:08;;;;;;;18.63;4.32;;;4.90;95.90;;;;;;4839331;29;20064;-79
2022/01/12 11:46:55;;;;;;;21.20;3.35;;;5.20;95.80;;;;;;4830844;29;20498;-80
2022/01/12 11:49:53;;;;;;;14.00;3.72;;;5.50;95.80;;;;;;4828584;29;20506;-80
2022/01/12 11:52:30;;;;;;;14.82;3.63;;;5.90;95.70;;;;;;4800939;29;20051;-80
2022/01/12 11:55:10;;;;;;;20.52;2.90;;;6.50;95.70;;;;;;4839858;29;20065;-81
2022/01/12 11:57:41;;;;;;;12.65;3.35;;;7.00;95.50;;;;;;4829331;29;20049;-80
2022/01/12 12:00:15;;;;;;;20.10;5.22;;;7.50;95.20;;;;;;4831567;29;20426;-80
2022/01/12 12:02:47;;;;;;;15.15;4.32;;;7.90;94.80;;;;;;4843164;29;20065;-80
2022/01/12 12:05:17;;;;;;;13.65;3.53;;;8.30;94.50;;;;;;4827349;29;20073;-81
2022/01/12 12:07:54;;;;;;;12.05;3.17;;;8.60;94.20;;;;;;4834877;29;20051;-80
2022/01/12 12:10:32;;;;;;;10.55;2.55;;;9.00;94.00;;;;;;4834977;29;20479;-81
2022/01/12 12:13:00;;;;;;;10.50;3.28;;;9.40;93.70;;;;;;4829280;29;20061;-80
2022/01/12 12:15:28;;;;;;;11.40;3.20;;;9.80;93.40;;;;;;4856367;29;20097;-80
2022/01/12 12:18:03;;;;;;;13.43;3.20;;;10.10;92.70;;;;;;4842729;29;20124;-80
2022/01/12 12:20:33;;;;;;;9.27;2.30;;;10.30;92.40;;;;;;4830164;29;20073;-80
2022/01/12 12:23:01;;;;;;;11.15;2.65;;;10.40;91.00;;;;;;4839205;29;20050;-80
2022/01/12 12:25:34;;;;;;;17.83;2.78;;;10.60;91.10;;;;;;4839607;29;20050;-80
2022/01/12 12:28:06;;;;;;;8.48;2.42;;;10.70;90.10;;;;;;4831438;29;20414;-80
2022/01/12 12:30:38;;;;;;;5.68;2.03;;;10.80;89.50;;;;;;4831305;29;20529;-80
2022/01/12 12:33:11;;;;;;;12.02;2.95;;;10.80;88.10;;;;;;4838827;29;20050;-79
2022/01/12 12:35:41;;;;;;;6.20;2.15;;;10.90;88.70;;;;;;4828155;29;20053;-80
2022/01/12 12:38:13;;;;;;;8.82;2.58;;;11.20;88.60;;;;;;4833957;29;20050;-79
2022/01/12 12:40:43;;;;;;;11.13;2.50;;;11.30;87.60;;;;;;4835217;29;20062;-79
2022/01/12 12:43:19;;;;;;;12.13;2.30;;;11.50;85.90;;;;;;4840336;29;20065;-80
2022/01/12 12:45:48;;;;;;;12.32;2.70;;;11.70;85.30;;;;;;4837321;29;20046;-79
2022/01/12 12:48:19;;;;;;;9.43;2.63;;;11.90;84.00;;;;;;4833047;29;20066;-79
2022/01/12 12:50:56;;;;;;;9.95;2.40;;;12.10;82.60;;;;;;4828772;29;20050;-79
2022/01/12 12:53:28;;;;;;;13.23;2.40;;;12.50;81.90;;;;;;4838574;29;20058;-80
2022/01/12 12:55:56;;;;;;;12.50;2.10;;;12.90;80.60;;;;;;4830478;29;20050;-80
2022/01/12 12:58:30;;;;;;;15.35;2.17;;;13.20;78.60;;;;;;4832074;29;20133;-79
2022/01/12 13:01:09;;;;;;;7.32;1.80;;;13.50;77.00;;;;;;4838275;29;20524;-79
2022/01/12 13:03:39;;;;;;;9.07;2.28;;;13.80;75.20;;;;;;4828252;29;20057;-79
2022/01/12 13:06:07;;;;;;;11.02;1.88;;;13.80;72.10;;;;;;4847916;29;20061;-80
2022/01/12 13:08:35;;;;;;;7.78;2.08;;;13.90;71.50;;;;;;4835126;29;20045;-79
2022/01/12 13:11:06;;;;;;;9.27;1.70;;;13.90;70.60;;;;;;4826799;29;20502;-79
2022/01/12 13:13:34;;;;;;;8.50;1.92;;;13.90;68.10;;;;;;4827574;29;20073;-79
2022/01/12 13:16:05;;;;;;;11.00;2.20;;;13.90;67.20;;;;;;4818243;29;20050;-79
2022/01/12 13:18:39;;;;;;;9.98;1.75;;;13.80;66.50;;;;;;4833142;29;20379;-79
2022/01/12 13:21:07;;;;;;;13.73;1.75;;;13.80;66.20;;;;;;4826840;29;20046;-79
2022/01/12 13:23:40;;;;;;;9.93;2.55;;;13.70;66.20;;;;;;4824837;29;20058;-79
2022/01/12 13:26:10;;;;;;;;;;;13.80;66.70;;;;;;4834108;29;20407;-79
2022/01/12 13:28:40;;;;;;;11.55;1.73;;;14.10;66.70;;;;;;4819013;29;19928;-79
2022/01/12 13:31:11;;;;;;;8.57;2.63;;;14.20;65.90;;;;;;4826102;29;20081;-80
2022/01/12 13:33:45;;;;;;;11.90;2.10;;;14.20;64.60;;;;;;4820635;29;20046;-79
2022/01/12 13:36:21;;;;;;;9.40;2.30;;;14.20;64.30;;;;;;4832258;29;20058;-79
2022/01/12 13:38:55;;;;;;;7.93;1.92;;;14.20;63.50;;;;;;4828289;29;20050;-78
2022/01/12 13:41:29;;;;;;;7.55;1.88;;;14.00;62.70;;;;;;4832740;29;20076;-78
2022/01/12 13:44:05;;;;;;;9.23;2.30;;;13.90;63.70;;;;;;4838826;29;20054;-79
2022/01/12 13:46:52;;;;;;;10.77;2.45;;;13.80;63.50;;;;;;4833840;29;20061;-80
2022/01/12 13:49:21;;;;;;;10.77;2.33;;;13.80;64.40;;;;;;4823362;29;20050;-79
2022/01/12 13:51:54;;;;;;;12.43;2.13;;;13.90;64.50;;;;;;4824991;29;20524;-79
2022/01/12 13:54:26;;;;;;;11.73;2.40;;;13.90;63.40;;;;;;4830772;29;20065;-79
2022/01/12 13:56:54;;;;;;;10.95;2.58;;;13.80;63.30;;;;;;4822357;29;20294;-79
2022/01/12 13:59:25;;;;;;;18.85;2.50;;;13.30;64.50;;;;;;4838175;29;20445;-79
2022/01/12 14:01:54;;;;;;;10.32;2.53;;;12.60;65.50;;;;;;4824625;29;20069;-79
2022/01/12 14:04:40;;;;;;;12.45;2.45;;;11.90;66.90;;;;;;4814957;29;20502;-80